Time;durP1;ratioP1;P1;durP2;ratioP2;P2;SDS_P1;SDS_P2;PMS_P1;PMS_P2;Temp;Humidity;BMP_temperature;BMP_pressure;BME280_temperature;BME280_humidity;BME280_pressure;Samples;Min_cycle;Max_cycle;Signal;HPM_P1;HPM_P2
2021/07/17 00:00:35;;;;;;;12.60;6.82;;;;;;;;;;4655860;30;20489;-83
2021/07/17 00:03:03;;;;;;;12.63;7.00;;;;;;;;;;4655886;30;20038;-83
2021/07/17 00:05:29;;;;;;;13.93;7.25;;;;;;;;;;4668281;30;20038;-83
2021/07/17 00:07:54;;;;;;;16.13;7.55;;;;;;;;;;4657862;30;20044;-82
2021/07/17 00:10:24;;;;;;;14.57;7.30;;;;;;;;;;4689363;30;20057;-82
2021/07/17 00:12:49;;;;;;;16.35;6.85;;;;;;;;;;4670897;30;20454;-83
2021/07/17 00:15:17;;;;;;;15.07;6.95;;;;;;;;;;4670284;30;20030;-83
2021/07/17 00:17:45;;;;;;;12.48;7.05;;;;;;;;;;4669493;30;20061;-83
2021/07/17 00:20:12;;;;;;;16.15;7.20;;;;;;;;;;4684216;30;20097;-83
2021/07/17 00:22:38;;;;;;;12.10;6.93;;;;;;;;;;4682295;30;20042;-83
2021/07/17 00:25:09;;;;;;;12.10;6.25;;;;;;;;;;4687331;30;20034;-83
2021/07/17 00:27:34;;;;;;;16.02;7.05;;;;;;;;;;4668052;30;20034;-83
2021/07/17 00:30:00;;;;;;;12.15;6.45;;;;;;;;;;4685248;30;20034;-83
2021/07/17 00:32:25;;;;;;;11.55;6.90;;;;;;;;;;4670704;30;20049;-83
2021/07/17 00:34:50;;;;;;;12.90;6.50;;;;;;;;;;4655381;30;20045;-83
2021/07/17 00:37:16;;;;;;;12.88;6.80;;;;;;;;;;4687883;30;20068;-83
2021/07/17 00:39:41;;;;;;;13.15;6.97;;;;;;;;;;4656358;30;20052;-83
2021/07/17 00:42:07;;;;;;;12.80;5.55;;;;;;;;;;4657374;30;20049;-83
2021/07/17 00:44:33;;;;;;;15.52;6.78;;;;;;;;;;4669984;30;20089;-83
2021/07/17 00:46:59;;;;;;;14.82;7.78;;;;;;;;;;4658125;30;20045;-83
2021/07/17 00:49:28;;;;;;;14.77;7.07;;;;;;;;;;4654860;30;20046;-83
2021/07/17 00:51:53;;;;;;;13.65;6.72;;;;;;;;;;4679771;30;20025;-83
2021/07/17 00:54:19;;;;;;;14.27;6.90;;;;;;;;;;4671319;30;20046;-83
2021/07/17 00:56:48;;;;;;;16.67;7.57;;;;;;;;;;4672471;30;20139;-83
2021/07/17 00:59:16;;;;;;;13.48;6.65;;;;;;;;;;4671022;30;20038;-83
2021/07/17 01:01:42;;;;;;;12.18;6.72;;;;;;;;;;4686386;30;20037;-82
2021/07/17 01:04:08;;;;;;;15.88;7.03;;;;;;;;;;4658146;30;20045;-83
2021/07/17 01:06:34;;;;;;;12.55;6.75;;;;;;;;;;4668175;30;20052;-83
2021/07/17 01:08:59;;;;;;;15.00;6.95;;;;;;;;;;4657624;30;20132;-83
2021/07/17 01:11:25;;;;;;;12.77;6.53;;;;;;;;;;4672069;30;20046;-83
2021/07/17 01:13:50;;;;;;;12.40;6.65;;;;;;;;;;4642233;30;20496;-83
2021/07/17 01:16:16;;;;;;;13.52;6.82;;;;;;;;;;4687713;30;20044;-83
2021/07/17 01:18:43;;;;;;;13.25;6.90;;;;;;;;;;4657158;30;20038;-83
2021/07/17 01:21:17;;;;;;;14.25;6.57;;;;;;;;;;4687192;30;20033;-83
2021/07/17 01:23:44;;;;;;;15.68;7.43;;;;;;;;;;4666595;30;20041;-83
2021/07/17 01:26:10;;;;;;;13.50;7.32;;;;;;;;;;4660055;30;20108;-83
2021/07/17 01:28:39;;;;;;;13.65;7.18;;;;;;;;;;4670129;30;20040;-83
2021/07/17 01:31:05;;;;;;;17.05;7.40;;;;;;;;;;4686420;30;20042;-83
2021/07/17 01:33:31;;;;;;;14.63;6.95;;;;;;;;;;4656571;30;22765;-82
2021/07/17 01:35:57;;;;;;;15.00;7.97;;;;;;;;;;4656366;30;20037;-83
2021/07/17 01:38:22;;;;;;;14.68;7.25;;;;;;;;;;4670449;30;20378;-82
2021/07/17 01:40:48;;;;;;;13.65;7.25;;;;;;;;;;4654026;30;20050;-83
2021/07/17 01:43:14;;;;;;;15.05;7.60;;;;;;;;;;4672885;30;20044;-83
2021/07/17 01:45:40;;;;;;;15.55;7.70;;;;;;;;;;4670506;30;20129;-83
2021/07/17 01:48:07;;;;;;;13.13;6.57;;;;;;;;;;4669534;30;20108;-83
2021/07/17 01:50:33;;;;;;;14.98;6.68;;;;;;;;;;4684325;30;20038;-83
2021/07/17 01:53:04;;;;;;;16.08;6.78;;;;;;;;;;4669166;30;20040;-83
2021/07/17 01:55:29;;;;;;;14.80;7.18;;;;;;;;;;4653496;30;20049;-83
2021/07/17 01:57:55;;;;;;;16.10;7.78;;;;;;;;;;4669949;30;20108;-83
2021/07/17 02:00:21;;;;;;;15.27;7.03;;;;;;;;;;4655954;30;20370;-83
2021/07/17 02:02:48;;;;;;;13.88;7.20;;;;;;;;;;4670795;30;20106;-82
2021/07/17 02:05:14;;;;;;;13.07;6.60;;;;;;;;;;4685237;30;20207;-83
2021/07/17 02:07:40;;;;;;;14.48;7.18;;;;;;;;;;4684921;30;20124;-83
2021/07/17 02:10:11;;;;;;;12.27;6.50;;;;;;;;;;4656759;30;20511;-83
2021/07/17 02:12:56;;;;;;;17.05;7.60;;;;;;;;;;4685580;30;20084;-83
2021/07/17 02:15:22;;;;;;;11.63;7.15;;;;;;;;;;4671542;30;20507;-83
2021/07/17 02:17:48;;;;;;;12.68;6.65;;;;;;;;;;4656631;30;20037;-83
2021/07/17 02:20:14;;;;;;;13.25;6.93;;;;;;;;;;4655123;30;20130;-83
2021/07/17 02:22:39;;;;;;;18.98;8.20;;;;;;;;;;4655493;30;20440;-83
2021/07/17 02:25:05;;;;;;;13.30;7.00;;;;;;;;;;4686079;30;20033;-83
2021/07/17 02:27:31;;;;;;;13.32;6.75;;;;;;;;;;4643168;30;20038;-83
2021/07/17 02:29:57;;;;;;;11.60;6.72;;;;;;;;;;4670740;30;20038;-83
2021/07/17 02:32:22;;;;;;;12.98;6.45;;;;;;;;;;4671476;30;20036;-83
2021/07/17 02:34:48;;;;;;;10.82;6.53;;;;;;;;;;4656164;30;20033;-83
2021/07/17 02:37:14;;;;;;;11.27;6.55;;;;;;;;;;4656054;30;20038;-83
2021/07/17 02:39:40;;;;;;;16.83;6.95;;;;;;;;;;4658586;30;20183;-83
2021/07/17 02:42:05;;;;;;;16.90;7.00;;;;;;;;;;4671117;30;20139;-83
2021/07/17 02:44:31;;;;;;;12.35;6.40;;;;;;;;;;4674287;30;20049;-83
2021/07/17 02:46:56;;;;;;;13.32;6.75;;;;;;;;;;4674745;30;20046;-83
2021/07/17 02:49:22;;;;;;;16.58;7.13;;;;;;;;;;4644805;30;20045;-83
2021/07/17 02:51:47;;;;;;;13.00;7.03;;;;;;;;;;4659497;30;20037;-83
2021/07/17 02:54:13;;;;;;;18.17;7.65;;;;;;;;;;4672565;30;20488;-83
2021/07/17 02:56:38;;;;;;;12.95;6.88;;;;;;;;;;4659873;30;20033;-83
2021/07/17 02:59:04;;;;;;;11.98;6.65;;;;;;;;;;4668204;30;20547;-83
2021/07/17 03:01:29;;;;;;;13.00;7.20;;;;;;;;;;4659708;30;20049;-83
2021/07/17 03:03:55;;;;;;;12.40;7.72;;;;;;;;;;4660657;30;21704;-83
2021/07/17 03:06:20;;;;;;;14.35;7.20;;;;;;;;;;4673187;30;20096;-83
2021/07/17 03:08:46;;;;;;;11.13;6.80;;;;;;;;;;4659089;30;20054;-83
2021/07/17 03:11:11;;;;;;;15.73;7.65;;;;;;;;;;4673245;30;20042;-83
2021/07/17 03:13:36;;;;;;;16.65;7.70;;;;;;;;;;4659643;30;20112;-83
2021/07/17 03:16:02;;;;;;;13.52;7.80;;;;;;;;;;4673330;30;20041;-83
2021/07/17 03:18:27;;;;;;;10.43;6.50;;;;;;;;;;4673302;30;20187;-83
2021/07/17 03:20:53;;;;;;;13.68;6.95;;;;;;;;;;4657873;30;20815;-83
2021/07/17 03:23:18;;;;;;;11.75;7.05;;;;;;;;;;4645032;30;20504;-83
2021/07/17 03:25:44;;;;;;;12.32;6.78;;;;;;;;;;4642548;30;20101;-83
2021/07/17 03:28:09;;;;;;;15.50;7.10;;;;;;;;;;4672311;30;20124;-82
2021/07/17 03:30:35;;;;;;;14.52;6.50;;;;;;;;;;4659697;30;20038;-83
2021/07/17 03:33:00;;;;;;;13.80;7.90;;;;;;;;;;4673720;30;20614;-83
2021/07/17 03:35:25;;;;;;;12.82;6.97;;;;;;;;;;4672910;30;20046;-83
2021/07/17 03:37:51;;;;;;;16.42;7.13;;;;;;;;;;4658024;30;20048;-83
2021/07/17 03:40:16;;;;;;;12.65;6.30;;;;;;;;;;4659126;30;20030;-82
2021/07/17 03:42:42;;;;;;;16.13;7.22;;;;;;;;;;4669875;30;20096;-83
2021/07/17 03:45:08;;;;;;;13.82;7.32;;;;;;;;;;4671556;30;20061;-83
2021/07/17 03:47:33;;;;;;;14.43;6.50;;;;;;;;;;4673121;30;21571;-83
2021/07/17 03:50:00;;;;;;;10.57;6.10;;;;;;;;;;4644134;30;20104;-83
2021/07/17 03:52:25;;;;;;;14.25;7.22;;;;;;;;;;4656853;30;20038;-83
2021/07/17 03:54:51;;;;;;;10.85;6.70;;;;;;;;;;4658774;30;20121;-83
2021/07/17 03:57:16;;;;;;;13.07;7.22;;;;;;;;;;4672328;30;20042;-83
2021/07/17 03:59:42;;;;;;;15.82;7.32;;;;;;;;;;4672742;30;20049;-83
2021/07/17 04:02:07;;;;;;;11.07;6.80;;;;;;;;;;4657824;30;20037;-83
2021/07/17 04:04:39;;;;;;;11.50;6.68;;;;;;;;;;4658618;30;20112;-83
2021/07/17 04:07:04;;;;;;;14.27;6.60;;;;;;;;;;4672615;30;20184;-83
2021/07/17 04:09:30;;;;;;;13.25;6.40;;;;;;;;;;4655304;30;20533;-83
2021/07/17 04:11:55;;;;;;;13.38;7.18;;;;;;;;;;4667768;30;20082;-83
2021/07/17 04:14:20;;;;;;;10.90;6.50;;;;;;;;;;4660065;30;20505;-83
2021/07/17 04:16:47;;;;;;;12.13;6.20;;;;;;;;;;4669786;30;20108;-83
2021/07/17 04:19:13;;;;;;;11.85;6.82;;;;;;;;;;4656050;30;20085;-83
2021/07/17 04:21:38;;;;;;;13.98;6.50;;;;;;;;;;4655468;30;20049;-83
2021/07/17 04:24:04;;;;;;;12.95;6.13;;;;;;;;;;4653264;30;20488;-83
2021/07/17 04:26:29;;;;;;;15.15;7.18;;;;;;;;;;4679949;30;20119;-83
2021/07/17 04:28:55;;;;;;;16.35;6.53;;;;;;;;;;4651180;30;20455;-83
2021/07/17 04:31:20;;;;;;;13.98;7.50;;;;;;;;;;4652524;30;20073;-83
2021/07/17 04:33:46;;;;;;;10.00;5.88;;;;;;;;;;4653457;30;20069;-83
2021/07/17 04:36:12;;;;;;;15.75;6.72;;;;;;;;;;4667917;30;20480;-83
2021/07/17 04:38:40;;;;;;;13.20;6.00;;;;;;;;;;4653711;30;20042;-83
2021/07/17 04:41:05;;;;;;;17.40;7.25;;;;;;;;;;4666869;30;20049;-83
2021/07/17 04:43:31;;;;;;;11.77;6.40;;;;;;;;;;4667308;30;20038;-83
2021/07/17 04:45:56;;;;;;;16.00;6.75;;;;;;;;;;4666222;30;20047;-83
2021/07/17 04:48:22;;;;;;;13.90;6.22;;;;;;;;;;4655702;30;20110;-83
2021/07/17 04:50:47;;;;;;;14.45;7.00;;;;;;;;;;4667561;30;20057;-83
2021/07/17 04:53:13;;;;;;;14.63;6.75;;;;;;;;;;4653202;30;20042;-82
2021/07/17 04:55:39;;;;;;;11.27;6.30;;;;;;;;;;4651673;30;20129;-83
2021/07/17 04:58:05;;;;;;;13.27;6.70;;;;;;;;;;4653357;30;20047;-83
2021/07/17 05:00:30;;;;;;;11.70;6.25;;;;;;;;;;4670165;30;20065;-83
2021/07/17 05:02:56;;;;;;;16.63;7.32;;;;;;;;;;4654922;30;20038;-83
2021/07/17 05:05:23;;;;;;;14.57;6.75;;;;;;;;;;4668719;30;20038;-83
2021/07/17 05:07:50;;;;;;;13.48;5.78;;;;;;;;;;4655205;30;20038;-83
2021/07/17 05:10:18;;;;;;;12.77;6.38;;;;;;;;;;4654677;30;20081;-83
2021/07/17 05:12:44;;;;;;;13.65;6.45;;;;;;;;;;4662321;30;20041;-83
2021/07/17 05:15:12;;;;;;;14.63;6.20;;;;;;;;;;4664468;30;20117;-83
2021/07/17 05:17:38;;;;;;;13.85;6.50;;;;;;;;;;4668941;30;20039;-83
2021/07/17 05:20:10;;;;;;;16.70;6.55;;;;;;;;;;4669420;30;20037;-83
2021/07/17 05:22:35;;;;;;;11.90;5.97;;;;;;;;;;4667394;30;20424;-83
2021/07/17 05:25:01;;;;;;;15.00;6.50;;;;;;;;;;4668046;30;20042;-83
2021/07/17 05:27:26;;;;;;;15.27;6.55;;;;;;;;;;4664624;30;20062;-83
2021/07/17 05:29:52;;;;;;;14.90;6.75;;;;;;;;;;4644225;30;20046;-83
2021/07/17 05:32:18;;;;;;;12.48;5.75;;;;;;;;;;4680105;30;20124;-83
2021/07/17 05:34:44;;;;;;;12.75;6.70;;;;;;;;;;4663520;30;20056;-83
2021/07/17 05:37:10;;;;;;;17.20;6.03;;;;;;;;;;4648460;30;20469;-83
2021/07/17 05:39:36;;;;;;;18.02;6.97;;;;;;;;;;4665240;30;20058;-83
2021/07/17 05:42:03;;;;;;;14.05;6.30;;;;;;;;;;4651204;30;20050;-83
2021/07/17 05:44:28;;;;;;;13.48;6.15;;;;;;;;;;4668832;30;20049;-83
2021/07/17 05:46:54;;;;;;;15.68;5.78;;;;;;;;;;4654055;30;20391;-83
2021/07/17 05:49:19;;;;;;;15.57;6.15;;;;;;;;;;4653561;30;20073;-83
2021/07/17 05:51:46;;;;;;;14.85;5.28;;;;;;;;;;4653548;30;20042;-83
2021/07/17 05:54:11;;;;;;;18.42;5.65;;;;;;;;;;4639021;30;20042;-83
2021/07/17 05:56:37;;;;;;;15.48;6.40;;;;;;;;;;4664912;30;20113;-83
2021/07/17 05:59:02;;;;;;;17.83;5.75;;;;;;;;;;4652526;30;20615;-83
2021/07/17 06:01:27;;;;;;;16.38;5.53;;;;;;;;;;4668949;30;20039;-82
2021/07/17 06:03:53;;;;;;;18.52;6.47;;;;;;;;;;4653407;30;20038;-83
2021/07/17 06:06:18;;;;;;;16.00;6.13;;;;;;;;;;4667350;30;20040;-83
2021/07/17 06:08:44;;;;;;;15.35;6.05;;;;;;;;;;4638130;30;20444;-83
2021/07/17 06:11:09;;;;;;;14.38;5.63;;;;;;;;;;4639150;30;20172;-83
2021/07/17 06:13:34;;;;;;;20.08;6.53;;;;;;;;;;4667720;30;20100;-83
2021/07/17 06:16:00;;;;;;;18.90;6.38;;;;;;;;;;4652098;30;20042;-83
2021/07/17 06:18:25;;;;;;;16.92;6.35;;;;;;;;;;4652295;30;20039;-83
2021/07/17 06:20:51;;;;;;;18.55;6.25;;;;;;;;;;4638557;30;20102;-83
2021/07/17 06:23:16;;;;;;;21.58;6.57;;;;;;;;;;4666983;30;20065;-83
2021/07/17 06:25:42;;;;;;;15.70;6.03;;;;;;;;;;4667600;30;20457;-83
2021/07/17 06:28:07;;;;;;;20.58;6.80;;;;;;;;;;4653151;30;20107;-83
2021/07/17 06:30:33;;;;;;;17.95;6.63;;;;;;;;;;4652714;30;20042;-83
2021/07/17 06:32:58;;;;;;;14.43;6.28;;;;;;;;;;4667397;30;20066;-83
2021/07/17 06:35:24;;;;;;;17.33;6.28;;;;;;;;;;4666878;30;20500;-83
2021/07/17 06:37:49;;;;;;;16.38;6.13;;;;;;;;;;4654191;30;20834;-83
2021/07/17 06:40:16;;;;;;;20.60;6.90;;;;;;;;;;4668480;30;20451;-83
2021/07/17 06:42:47;;;;;;;17.83;6.30;;;;;;;;;;4647464;30;20134;-83
2021/07/17 06:45:14;;;;;;;13.52;5.47;;;;;;;;;;4669782;30;20049;-82
2021/07/17 06:47:39;;;;;;;17.00;5.38;;;;;;;;;;4656787;30;20030;-83
2021/07/17 06:50:07;;;;;;;16.15;5.50;;;;;;;;;;4653171;30;20038;-83
2021/07/17 06:52:32;;;;;;;11.50;5.35;;;;;;;;;;4638169;30;20397;-83
2021/07/17 06:54:58;;;;;;;15.80;5.47;;;;;;;;;;4667510;30;20034;-83
2021/07/17 06:57:24;;;;;;;18.15;5.60;;;;;;;;;;4665687;30;20054;-83
2021/07/17 06:59:49;;;;;;;20.35;5.78;;;;;;;;;;4651379;30;20129;-83
2021/07/17 07:02:14;;;;;;;14.48;5.78;;;;;;;;;;4665789;30;20042;-83
2021/07/17 07:04:40;;;;;;;12.27;4.60;;;;;;;;;;4651199;30;20038;-83
2021/07/17 07:07:07;;;;;;;15.23;5.60;;;;;;;;;;4665377;30;20056;-83
2021/07/17 07:09:32;;;;;;;15.73;5.82;;;;;;;;;;4664389;30;20051;-83
2021/07/17 07:11:58;;;;;;;15.45;5.47;;;;;;;;;;4636115;30;20500;-83
2021/07/17 07:14:25;;;;;;;12.75;5.28;;;;;;;;;;4639405;30;20035;-83
2021/07/17 07:16:55;;;;;;;15.73;4.93;;;;;;;;;;4635098;30;20453;-83
2021/07/17 07:19:21;;;;;;;15.32;5.53;;;;;;;;;;4651050;30;20047;-83
2021/07/17 07:21:46;;;;;;;13.18;5.53;;;;;;;;;;4651586;30;20093;-83
2021/07/17 07:24:14;;;;;;;17.52;5.72;;;;;;;;;;4665435;30;20042;-83
2021/07/17 07:26:42;;;;;;;17.52;5.75;;;;;;;;;;4652028;30;20046;-83
2021/07/17 07:29:09;;;;;;;17.27;6.05;;;;;;;;;;4654599;30;20122;-83
2021/07/17 07:31:36;;;;;;;15.45;5.30;;;;;;;;;;4654032;30;20035;-84
2021/07/17 07:34:03;;;;;;;14.32;5.55;;;;;;;;;;4666530;30;20112;-84
2021/07/17 08:09:44;;;;;;;10.30;4.07;;;;;;;;;;496394;28;20374;-81
2021/07/17 08:12:46;;;;;;;15.23;4.53;;;;;;;;;;4716055;30;20057;-83
2021/07/17 08:15:57;;;;;;;;;;;;;;;;;;;;;
2021/07/17 08:21:27;;;;;;;13.80;4.70;;;;;;;;;;4674484;30;20406;-83
2021/07/17 08:23:58;;;;;;;9.60;4.22;;;;;;;;;;4693008;30;20127;-82
2021/07/17 08:26:32;;;;;;;15.50;4.53;;;;;;;;;;4692400;30;20152;-82
2021/07/17 08:29:10;;;;;;;10.68;3.75;;;;;;;;;;4692071;30;20072;-82
2021/07/17 08:31:39;;;;;;;10.38;3.92;;;;;;;;;;4689384;30;20055;-82
2021/07/17 08:34:10;;;;;;;8.98;3.85;;;;;;;;;;4690846;30;20115;-83
2021/07/17 08:36:59;;;;;;;13.63;4.00;;;;;;;;;;4705220;30;20045;-83
2021/07/17 08:39:28;;;;;;;9.32;4.47;;;;;;;;;;4698602;30;20053;-83
2021/07/17 08:42:25;;;;;;;10.30;4.03;;;;;;;;;;4690362;30;20056;-83
2021/07/17 08:45:09;;;;;;;;;;;;;;;;;;;;;
2021/07/17 08:47:41;;;;;;;10.57;3.60;;;;;;;;;;4691340;30;20041;-83
2021/07/17 08:50:10;;;;;;;8.90;3.10;;;;;;;;;;4685643;30;20056;-83
2021/07/17 08:52:36;;;;;;;8.07;3.28;;;;;;;;;;4701362;30;20865;-83
2021/07/17 08:55:07;;;;;;;7.47;2.92;;;;;;;;;;4698500;30;20877;-82
2021/07/17 08:57:34;;;;;;;7.63;3.03;;;;;;;;;;4713906;30;20043;-82
2021/07/17 09:00:03;;;;;;;7.00;3.00;;;;;;;;;;4698469;30;20406;-82
2021/07/17 09:02:29;;;;;;;9.27;3.40;;;;;;;;;;4703709;30;20049;-82
2021/07/17 09:04:54;;;;;;;8.85;3.33;;;;;;;;;;4683846;30;20083;-82
2021/07/17 09:07:20;;;;;;;10.20;3.20;;;;;;;;;;4692360;30;20045;-83
2021/07/17 09:09:46;;;;;;;9.38;3.00;;;;;;;;;;4679267;30;20495;-83
2021/07/17 09:12:26;;;;;;;12.48;3.08;;;;;;;;;;4693331;30;20052;-82
2021/07/17 09:14:52;;;;;;;8.27;2.92;;;;;;;;;;4687015;30;20844;-82
2021/07/17 09:17:26;;;;;;;9.45;2.90;;;;;;;;;;4681171;30;20774;-82
2021/07/17 09:19:54;;;;;;;7.53;2.63;;;;;;;;;;4688613;30;20038;-82
2021/07/17 09:22:32;;;;;;;11.20;3.00;;;;;;;;;;4699517;30;20041;-82
2021/07/17 09:25:33;;;;;;;8.52;2.92;;;;;;;;;;4707107;30;20114;-82
2021/07/17 09:28:19;;;;;;;6.97;2.65;;;;;;;;;;4709910;30;20033;-82
2021/07/17 09:30:46;;;;;;;6.93;3.15;;;;;;;;;;4706188;30;20049;-81
2021/07/17 09:33:13;;;;;;;6.75;2.97;;;;;;;;;;4695135;30;20057;-81
2021/07/17 09:35:42;;;;;;;9.43;3.10;;;;;;;;;;4682574;30;20979;-81
2021/07/17 09:38:08;;;;;;;10.02;2.95;;;;;;;;;;4696311;30;20048;-81
2021/07/17 09:40:43;;;;;;;7.25;2.70;;;;;;;;;;4683289;30;20062;-80
2021/07/17 09:43:09;;;;;;;6.75;2.70;;;;;;;;;;4701062;30;20045;-82
2021/07/17 09:45:36;;;;;;;7.15;2.60;;;;;;;;;;4701724;30;20071;-83
2021/07/17 09:48:20;;;;;;;11.20;2.72;;;;;;;;;;4681224;30;20037;-82
2021/07/17 09:50:46;;;;;;;5.57;2.20;;;;;;;;;;4687616;30;20041;-81
2021/07/17 09:53:12;;;;;;;6.57;2.50;;;;;;;;;;4701420;30;20045;-82
2021/07/17 09:55:37;;;;;;;5.97;2.47;;;;;;;;;;4703161;30;20163;-83
2021/07/17 09:58:09;;;;;;;8.65;2.45;;;;;;;;;;4681963;30;20036;-82
2021/07/17 10:00:35;;;;;;;7.78;2.25;;;;;;;;;;4690062;30;20632;-82
2021/07/17 10:03:16;;;;;;;8.77;2.65;;;;;;;;;;4684568;30;20058;-83
2021/07/17 10:05:47;;;;;;;5.80;2.25;;;;;;;;;;4712901;30;20070;-83
2021/07/17 10:08:14;;;;;;;5.57;2.13;;;;;;;;;;4689297;30;20119;-82
2021/07/17 10:11:12;;;;;;;;;;;;;;;;;;;;;
2021/07/17 10:13:41;;;;;;;8.05;2.40;;;;;;;;;;4692288;30;20121;-82
2021/07/17 10:16:21;;;;;;;6.68;2.22;;;;;;;;;;4685503;30;20045;-83
2021/07/17 10:18:48;;;;;;;8.07;1.95;;;;;;;;;;4699997;30;20119;-83
2021/07/17 10:21:13;;;;;;;6.28;2.47;;;;;;;;;;4680528;30;20041;-82
2021/07/17 10:23:41;;;;;;;6.90;2.22;;;;;;;;;;4685112;30;20625;-82
2021/07/17 10:26:08;;;;;;;7.13;2.15;;;;;;;;;;4679496;30;20404;-83
2021/07/17 10:28:33;;;;;;;6.18;2.33;;;;;;;;;;4685937;30;20038;-82
2021/07/17 10:31:00;;;;;;;5.57;2.00;;;;;;;;;;4700269;30;20041;-83
2021/07/17 10:33:28;;;;;;;5.43;2.20;;;;;;;;;;4682032;30;20046;-83
2021/07/17 10:35:59;;;;;;;5.22;2.00;;;;;;;;;;4697599;30;20064;-82
2021/07/17 10:38:25;;;;;;;4.82;1.92;;;;;;;;;;4688724;30;20038;-83
2021/07/17 10:40:53;;;;;;;5.32;2.03;;;;;;;;;;4677695;30;20136;-83
2021/07/17 10:43:20;;;;;;;6.43;1.70;;;;;;;;;;4690524;30;20112;-83
2021/07/17 10:45:46;;;;;;;5.65;2.10;;;;;;;;;;4684861;30;20038;-82
2021/07/17 10:48:32;;;;;;;7.10;2.22;;;;;;;;;;4679131;30;20400;-82
2021/07/17 10:51:23;;;;;;;6.45;1.80;;;;;;;;;;4689201;30;20037;-83
2021/07/17 10:53:53;;;;;;;4.20;1.52;;;;;;;;;;4680887;30;20046;-83
2021/07/17 10:56:27;;;;;;;6.40;2.20;;;;;;;;;;4696241;30;20112;-83
2021/07/17 10:59:00;;;;;;;4.35;1.70;;;;;;;;;;4694319;30;20447;-83
2021/07/17 11:01:46;;;;;;;4.68;1.95;;;;;;;;;;4684617;30;20120;-83
2021/07/17 11:04:32;;;;;;;5.53;2.15;;;;;;;;;;4704628;30;20038;-83
2021/07/17 11:07:15;;;;;;;5.55;1.70;;;;;;;;;;4687730;30;20034;-82
2021/07/17 11:09:52;;;;;;;4.50;1.70;;;;;;;;;;4709714;30;20045;-82
2021/07/17 11:12:25;;;;;;;5.13;1.70;;;;;;;;;;4697691;30;20076;-83
2021/07/17 11:14:50;;;;;;;6.68;1.60;;;;;;;;;;4687625;30;20046;-83
2021/07/17 11:17:41;;;;;;;4.25;1.70;;;;;;;;;;4688676;30;20060;-82
2021/07/17 11:20:39;;;;;;;4.90;1.60;;;;;;;;;;4695330;30;20045;-82
2021/07/17 11:23:16;;;;;;;5.10;1.40;;;;;;;;;;4656360;30;20080;-83
2021/07/17 11:25:57;;;;;;;5.82;1.60;;;;;;;;;;4703872;30;20037;-82
2021/07/17 11:29:05;;;;;;;4.05;1.60;;;;;;;;;;4696258;30;20038;-83
2021/07/17 11:31:50;;;;;;;4.97;1.65;;;;;;;;;;4676497;30;20396;-83
2021/07/17 11:34:24;;;;;;;3.88;1.20;;;;;;;;;;4695288;30;20055;-82
2021/07/17 11:36:53;;;;;;;4.75;1.50;;;;;;;;;;4699971;30;20048;-82
2021/07/17 11:39:21;;;;;;;3.95;1.20;;;;;;;;;;4696208;30;20061;-82
2021/07/17 11:41:47;;;;;;;6.28;1.30;;;;;;;;;;4698442;30;20542;-82
2021/07/17 11:44:13;;;;;;;5.22;1.58;;;;;;;;;;4699207;30;20109;-81
2021/07/17 11:46:59;;;;;;;4.68;1.38;;;;;;;;;;4689721;30;20037;-82
2021/07/17 11:49:33;;;;;;;6.80;1.35;;;;;;;;;;4694220;30;20041;-82
2021/07/17 11:52:01;;;;;;;4.35;1.20;;;;;;;;;;4691138;30;20038;-81
2021/07/17 11:54:38;;;;;;;4.00;1.20;;;;;;;;;;4678262;30;20053;-81
2021/07/17 11:57:25;;;;;;;3.75;1.35;;;;;;;;;;4694495;30;20491;-82
2021/07/17 12:00:00;;;;;;;2.97;1.13;;;;;;;;;;4689692;30;20050;-81
2021/07/17 12:02:28;;;;;;;5.03;1.38;;;;;;;;;;4691279;30;20116;-83
2021/07/17 12:04:57;;;;;;;4.45;1.33;;;;;;;;;;4686399;30;20058;-80
2021/07/17 12:07:31;;;;;;;3.05;1.20;;;;;;;;;;4698217;30;20621;-81
2021/07/17 12:10:04;;;;;;;4.50;1.50;;;;;;;;;;4697618;30;20438;-82
2021/07/17 12:12:43;;;;;;;3.22;1.20;;;;;;;;;;4689649;30;20062;-78
2021/07/17 12:15:21;;;;;;;3.92;1.40;;;;;;;;;;4690375;30;20376;-78
2021/07/17 12:17:47;;;;;;;3.97;1.30;;;;;;;;;;4701288;30;20037;-78
2021/07/17 12:20:19;;;;;;;4.35;1.40;;;;;;;;;;4698199;30;20375;-79
2021/07/17 12:23:05;;;;;;;;;;;;;;;;;;4706412;30;20041;-78
2021/07/17 12:25:35;;;;;;;4.63;1.55;;;;;;;;;;4696856;30;19919;-79
2021/07/17 12:28:16;;;;;;;6.22;1.20;;;;;;;;;;4699536;30;20602;-79
2021/07/17 12:31:11;;;;;;;3.90;1.25;;;;;;;;;;4685863;30;20518;-79
2021/07/17 12:33:42;;;;;;;3.35;1.20;;;;;;;;;;4694854;30;20077;-78
2021/07/17 12:36:15;;;;;;;4.40;1.40;;;;;;;;;;4686972;30;20495;-78
2021/07/17 12:38:51;;;;;;;5.82;1.30;;;;;;;;;;4696977;30;20072;-79
2021/07/17 12:41:24;;;;;;;4.35;1.38;;;;;;;;;;4699532;30;20037;-79
2021/07/17 12:44:12;;;;;;;4.30;1.20;;;;;;;;;;4695517;30;20051;-79
2021/07/17 12:46:39;;;;;;;6.20;1.40;;;;;;;;;;4684742;30;20073;-79
2021/07/17 12:49:16;;;;;;;5.15;1.50;;;;;;;;;;4681308;30;20053;-79
2021/07/17 12:51:46;;;;;;;4.30;1.58;;;;;;;;;;4694242;30;20026;-79
2021/07/17 12:54:22;;;;;;;4.47;1.48;;;;;;;;;;4665260;30;20182;-79
2021/07/17 12:56:53;;;;;;;6.65;1.60;;;;;;;;;;4698563;30;20124;-78
2021/07/17 12:59:29;;;;;;;4.50;1.60;;;;;;;;;;4691909;30;20196;-79
2021/07/17 13:01:57;;;;;;;5.00;1.88;;;;;;;;;;4698432;30;20033;-79
2021/07/17 13:04:25;;;;;;;4.55;1.77;;;;;;;;;;4686459;30;20038;-79
2021/07/17 13:06:55;;;;;;;6.20;1.73;;;;;;;;;;4687746;30;20030;-79
2021/07/17 13:09:32;;;;;;;5.45;1.60;;;;;;;;;;4679917;30;20026;-79
2021/07/17 13:11:59;;;;;;;6.32;1.60;;;;;;;;;;4687520;30;20104;-79
2021/07/17 13:14:25;;;;;;;4.43;1.70;;;;;;;;;;4675865;30;20033;-79
2021/07/17 13:16:51;;;;;;;4.28;1.55;;;;;;;;;;4692341;30;20045;-79
2021/07/17 13:19:17;;;;;;;4.35;1.60;;;;;;;;;;4693100;30;20130;-79
2021/07/17 13:21:45;;;;;;;3.30;1.40;;;;;;;;;;4691991;30;20057;-79
2021/07/17 13:24:18;;;;;;;4.35;1.50;;;;;;;;;;4691756;30;20034;-78
2021/07/17 13:26:53;;;;;;;8.88;1.80;;;;;;;;;;4688896;30;20509;-78
2021/07/17 13:29:27;;;;;;;7.10;1.95;;;;;;;;;;4692203;30;20392;-78
2021/07/17 13:32:01;;;;;;;5.55;2.00;;;;;;;;;;4693130;30;20038;-77
2021/07/17 13:34:29;;;;;;;5.95;1.77;;;;;;;;;;4694758;30;20045;-78
2021/07/17 13:37:02;;;;;;;5.15;1.88;;;;;;;;;;4688574;30;20443;-78
2021/07/17 13:39:30;;;;;;;5.65;1.55;;;;;;;;;;4693044;30;20038;-78
2021/07/17 13:42:16;;;;;;;5.82;1.77;;;;;;;;;;4677814;30;20077;-78
2021/07/17 13:44:42;;;;;;;4.55;1.73;;;;;;;;;;4681898;30;20087;-79
2021/07/17 13:47:09;;;;;;;6.57;1.80;;;;;;;;;;4689435;30;20037;-78
2021/07/17 13:49:35;;;;;;;5.80;1.90;;;;;;;;;;4703311;30;20046;-78
2021/07/17 13:52:00;;;;;;;6.47;1.83;;;;;;;;;;4686014;30;20037;-78
2021/07/17 13:54:25;;;;;;;4.35;1.65;;;;;;;;;;4683371;30;20077;-79
2021/07/17 13:56:51;;;;;;;6.13;1.70;;;;;;;;;;4690615;30;20045;-78
2021/07/17 13:59:27;;;;;;;5.60;1.70;;;;;;;;;;4693289;30;20052;-79
2021/07/17 14:02:04;;;;;;;5.35;1.63;;;;;;;;;;4693061;30;20053;-79
2021/07/17 14:04:29;;;;;;;6.32;1.83;;;;;;;;;;4673423;30;20046;-78
2021/07/17 14:06:55;;;;;;;5.65;1.80;;;;;;;;;;4688689;30;20513;-78
2021/07/17 14:09:20;;;;;;;4.07;1.65;;;;;;;;;;4671956;30;20037;-78
2021/07/17 14:11:46;;;;;;;3.08;1.38;;;;;;;;;;4692861;30;20538;-78
2021/07/17 14:14:12;;;;;;;6.10;1.98;;;;;;;;;;4683683;30;20067;-78
2021/07/17 14:16:37;;;;;;;4.20;1.98;;;;;;;;;;4672474;30;20034;-79
2021/07/17 14:19:04;;;;;;;7.15;2.20;;;;;;;;;;4680654;30;20044;-78
2021/07/17 14:21:29;;;;;;;7.65;1.92;;;;;;;;;;4693963;30;20042;-78
2021/07/17 14:23:55;;;;;;;6.03;1.70;;;;;;;;;;4693643;30;20029;-79
2021/07/17 14:26:20;;;;;;;2.75;1.48;;;;;;;;;;4695062;30;20065;-78
2021/07/17 14:28:46;;;;;;;5.15;1.50;;;;;;;;;;4684103;30;20052;-78
2021/07/17 14:31:11;;;;;;;4.50;1.75;;;;;;;;;;4696465;30;20445;-78
2021/07/17 14:33:36;;;;;;;3.97;1.70;;;;;;;;;;4695813;30;20045;-78
2021/07/17 14:36:02;;;;;;;6.95;2.03;;;;;;;;;;4701738;30;20510;-78
2021/07/17 14:38:27;;;;;;;7.85;1.65;;;;;;;;;;4681677;30;20080;-79
2021/07/17 14:40:53;;;;;;;5.05;1.65;;;;;;;;;;4687261;30;20049;-78
2021/07/17 14:43:20;;;;;;;6.82;1.80;;;;;;;;;;4687722;30;20438;-78
2021/07/17 14:45:47;;;;;;;5.30;1.63;;;;;;;;;;4692456;30;20438;-78
2021/07/17 14:48:12;;;;;;;6.22;1.50;;;;;;;;;;4678740;30;20040;-78
2021/07/17 14:50:38;;;;;;;5.47;1.88;;;;;;;;;;4691273;30;20042;-79
2021/07/17 14:53:04;;;;;;;6.35;1.60;;;;;;;;;;4693611;30;20065;-79
2021/07/17 14:55:30;;;;;;;4.95;1.25;;;;;;;;;;4697771;30;20048;-78
2021/07/17 14:57:55;;;;;;;4.60;1.42;;;;;;;;;;4697186;30;20038;-78
2021/07/17 15:00:21;;;;;;;4.68;1.60;;;;;;;;;;4693962;30;20116;-78
2021/07/17 15:02:46;;;;;;;5.22;1.70;;;;;;;;;;4688576;30;20057;-77
2021/07/17 15:05:12;;;;;;;4.55;1.65;;;;;;;;;;4687972;30;20062;-77
2021/07/17 15:07:37;;;;;;;5.05;1.63;;;;;;;;;;4672665;30;20899;-77
2021/07/17 15:10:07;;;;;;;5.63;1.40;;;;;;;;;;4688752;30;20034;-78
2021/07/17 15:12:33;;;;;;;4.25;1.42;;;;;;;;;;4693580;30;20053;-77
2021/07/17 15:14:59;;;;;;;4.07;1.20;;;;;;;;;;4703838;30;20516;-77
2021/07/17 15:17:24;;;;;;;5.85;1.60;;;;;;;;;;4695915;30;20033;-78
2021/07/17 15:19:50;;;;;;;3.72;1.30;;;;;;;;;;4710696;30;20352;-78
2021/07/17 15:22:15;;;;;;;3.95;1.40;;;;;;;;;;4710931;30;20124;-78
2021/07/17 15:24:41;;;;;;;4.43;1.40;;;;;;;;;;4696667;30;20419;-79